Time;durP1;ratioP1;P1;durP2;ratioP2;P2;SDS_P1;SDS_P2;PMS_P1;PMS_P2;Temp;Humidity;BMP_temperature;BMP_pressure;BME280_temperature;BME280_humidity;BME280_pressure;Samples;Min_cycle;Max_cycle;Signal;HPM_P1;HPM_P2
2021/09/10 00:01:31;;;;;;;8.30;2.78;;;19.20;99.90;;;18.88;100.00;100784.13;4136360;28;20032;-65
2021/09/10 00:03:31;;;;;;;7.20;3.53;;;19.20;99.90;;;18.87;100.00;100782.50;4135196;28;20030;-64
2021/09/10 00:05:32;;;;;;;8.55;3.72;;;19.20;99.90;;;18.85;100.00;100775.69;4128615;28;20030;-64
2021/09/10 00:07:34;;;;;;;10.63;4.22;;;19.20;99.90;;;18.74;100.00;100764.63;4135179;28;20037;-64
2021/09/10 00:09:34;;;;;;;10.05;4.15;;;19.20;99.90;;;18.85;100.00;100778.38;4134896;28;20026;-64
2021/09/10 00:11:35;;;;;;;10.75;4.10;;;19.10;99.90;;;18.98;100.00;100770.34;4138086;28;20037;-65
2021/09/10 00:13:36;;;;;;;7.57;3.75;;;19.10;99.90;;;18.87;100.00;100760.28;4135241;28;20033;-64
2021/09/10 00:15:37;;;;;;;7.82;3.97;;;19.20;99.90;;;18.92;100.00;100787.22;4135167;28;20026;-64
2021/09/10 00:17:38;;;;;;;7.07;3.38;;;19.10;99.90;;;18.88;100.00;100769.94;4136438;28;20030;-64
2021/09/10 00:19:39;;;;;;;7.18;3.50;;;19.10;99.90;;;18.84;100.00;100782.91;4164132;28;20485;-64
2021/09/10 00:21:40;;;;;;;11.63;3.88;;;19.10;99.90;;;18.75;100.00;100781.50;4136035;28;20034;-64
2021/09/10 00:23:41;;;;;;;9.45;4.05;;;19.00;99.90;;;18.72;100.00;100776.56;4136170;28;20027;-64
2021/09/10 00:25:42;;;;;;;7.38;3.35;;;19.00;99.90;;;18.67;100.00;100774.50;4136203;28;20035;-64
2021/09/10 00:27:43;;;;;;;8.98;3.10;;;19.00;99.90;;;18.62;100.00;100768.13;4136235;28;20037;-64
2021/09/10 00:29:44;;;;;;;5.15;2.80;;;18.90;99.90;;;18.59;100.00;100782.75;4136160;28;20109;-65
2021/09/10 00:31:47;;;;;;;6.13;3.45;;;18.90;99.90;;;18.58;100.00;100785.59;4136182;28;20026;-65
2021/09/10 00:33:48;;;;;;;7.97;4.25;;;18.90;99.90;;;18.61;100.00;100783.34;4136185;28;20030;-64
2021/09/10 00:35:49;;;;;;;6.68;3.58;;;18.90;99.90;;;18.62;100.00;100787.66;4134786;28;20038;-65
2021/09/10 00:37:50;;;;;;;11.00;4.00;;;18.90;99.90;;;18.61;100.00;100785.19;4133573;28;20038;-65
2021/09/10 00:39:50;;;;;;;7.40;3.53;;;18.90;99.90;;;18.54;100.00;100784.38;4151211;28;20026;-65
2021/09/10 00:41:51;;;;;;;9.38;3.67;;;18.90;99.90;;;18.56;100.00;100783.16;4136070;28;20029;-65
2021/09/10 00:43:52;;;;;;;7.45;4.15;;;18.90;99.90;;;18.60;100.00;100786.25;4135940;28;20029;-65
2021/09/10 00:45:58;;;;;;;11.88;4.28;;;18.80;99.90;;;18.53;100.00;100782.75;4136235;28;20422;-64
2021/09/10 00:47:59;;;;;;;12.50;5.03;;;18.80;99.90;;;18.61;100.00;100785.19;4134907;28;20109;-64
2021/09/10 00:50:00;;;;;;;6.78;3.65;;;18.80;99.90;;;18.69;100.00;100790.34;4146594;28;20065;-65
2021/09/10 00:52:01;;;;;;;8.50;3.38;;;18.90;99.90;;;18.62;100.00;100797.53;4151067;28;20045;-65
2021/09/10 00:54:02;;;;;;;9.50;3.85;;;18.80;99.90;;;18.56;100.00;100793.84;4124705;28;20405;-64
2021/09/10 00:56:04;;;;;;;8.32;4.18;;;18.80;99.90;;;18.48;100.00;100795.88;4135884;28;20034;-64
2021/09/10 00:58:05;;;;;;;10.20;3.80;;;18.80;99.90;;;18.33;100.00;100771.22;4135916;28;20034;-64
2021/09/10 01:00:06;;;;;;;6.40;4.40;;;18.70;99.90;;;18.40;100.00;100791.53;4135863;28;20026;-64
2021/09/10 01:02:07;;;;;;;9.20;3.42;;;18.70;99.90;;;18.40;100.00;100782.72;4135771;28;20121;-64
2021/09/10 01:04:09;;;;;;;8.25;4.38;;;18.70;99.90;;;18.38;100.00;100779.44;4134682;28;20077;-64
2021/09/10 01:06:11;;;;;;;7.32;3.70;;;18.70;99.90;;;18.39;100.00;100781.06;4131936;28;20030;-64
2021/09/10 01:08:13;;;;;;;7.82;3.80;;;18.60;99.90;;;18.34;100.00;100784.34;4134931;28;20062;-64
2021/09/10 01:10:16;;;;;;;9.30;4.50;;;18.60;99.90;;;18.33;100.00;100781.91;4134541;28;20034;-64
2021/09/10 01:12:17;;;;;;;5.68;2.92;;;18.60;99.90;;;18.24;100.00;100763.41;4128836;28;20038;-64
2021/09/10 01:14:19;;;;;;;6.55;3.58;;;18.60;99.90;;;18.33;100.00;100781.91;4135638;28;20031;-65
2021/09/10 01:16:21;;;;;;;11.80;4.78;;;18.70;99.90;;;18.36;100.00;100782.31;4135674;28;20062;-65
2021/09/10 01:18:22;;;;;;;7.93;3.90;;;18.60;99.90;;;18.31;100.00;100773.28;4141830;28;20057;-65
2021/09/10 01:20:23;;;;;;;7.60;3.70;;;18.70;99.90;;;18.32;100.00;100775.72;4142481;28;20050;-65
2021/09/10 01:22:24;;;;;;;5.05;3.10;;;18.60;99.90;;;18.34;100.00;100779.00;4134496;28;20509;-65
2021/09/10 01:24:36;;;;;;;8.98;4.10;;;18.70;99.90;;;18.33;100.00;100781.91;4135171;28;20033;-65
2021/09/10 01:26:36;;;;;;;7.38;3.63;;;18.70;99.90;;;18.34;100.00;100781.69;4134314;28;20054;-65
2021/09/10 01:28:38;;;;;;;10.75;4.10;;;18.60;99.90;;;18.33;100.00;100781.91;4132453;28;20030;-65
2021/09/10 01:30:39;;;;;;;5.32;3.70;;;18.60;99.90;;;18.31;100.00;100771.41;4135736;28;20041;-65
2021/09/10 01:32:40;;;;;;;9.48;4.30;;;18.60;99.90;;;18.35;100.00;100777.16;4135784;28;20030;-65
2021/09/10 01:34:41;;;;;;;9.82;4.00;;;18.60;99.90;;;18.35;100.00;100775.31;4135470;28;20062;-65
2021/09/10 01:36:42;;;;;;;10.63;4.38;;;18.60;99.90;;;18.36;100.00;100771.63;4135550;28;20057;-65
2021/09/10 01:38:43;;;;;;;10.85;4.10;;;18.60;99.90;;;18.37;100.00;100773.25;4135287;28;20583;-65
2021/09/10 01:40:44;;;;;;;11.35;4.18;;;18.60;99.90;;;18.36;100.00;100789.50;4135511;28;20093;-64
2021/09/10 01:42:45;;;;;;;7.22;4.32;;;18.70;99.90;;;18.36;100.00;100787.66;4135633;28;20027;-65
2021/09/10 01:44:46;;;;;;;9.40;4.13;;;18.70;99.90;;;18.37;100.00;100789.28;4135580;28;20493;-64
2021/09/10 01:46:47;;;;;;;9.73;4.43;;;18.70;99.90;;;18.37;100.00;100797.28;4135343;28;20110;-64
2021/09/10 01:48:50;;;;;;;8.85;4.07;;;18.70;99.90;;;18.38;100.00;100796.28;4135637;28;20019;-64
2021/09/10 01:50:50;;;;;;;9.20;3.90;;;18.70;99.90;;;18.38;100.00;100793.59;4135245;28;20041;-64
2021/09/10 01:52:55;;;;;;;8.15;4.43;;;18.70;99.90;;;18.51;100.00;100800.84;4135373;28;20030;-65
2021/09/10 01:54:56;;;;;;;11.57;4.15;;;18.70;99.90;;;18.34;100.00;100779.00;4135303;28;20038;-64
2021/09/10 01:56:57;;;;;;;11.15;4.97;;;18.80;99.90;;;18.43;100.00;100791.13;4134131;28;20034;-64
2021/09/10 01:58:58;;;;;;;8.88;4.43;;;18.80;99.90;;;18.38;100.00;100790.94;4126719;28;20062;-64
2021/09/10 02:01:01;;;;;;;9.88;4.30;;;18.70;99.90;;;18.55;100.00;100796.69;4136263;28;20023;-64
2021/09/10 02:03:02;;;;;;;9.70;4.72;;;18.80;99.90;;;18.58;100.00;100813.16;4138138;28;20034;-64
2021/09/10 02:05:03;;;;;;;10.75;4.13;;;18.80;99.90;;;18.57;100.00;100800.84;4138165;28;20076;-64
2021/09/10 02:07:06;;;;;;;13.07;5.32;;;18.80;99.90;;;18.56;100.00;100801.84;4138342;28;20099;-64
2021/09/10 02:09:06;;;;;;;11.73;4.90;;;18.80;99.90;;;18.49;100.00;100800.19;4138206;28;20057;-64
2021/09/10 02:11:08;;;;;;;10.95;4.50;;;18.80;99.90;;;18.45;100.00;100797.09;4138096;28;20109;-64
2021/09/10 02:13:09;;;;;;;9.25;4.72;;;18.80;99.90;;;18.43;100.00;100799.16;4137109;28;20025;-64
2021/09/10 02:15:11;;;;;;;11.15;5.35;;;18.70;99.90;;;18.49;100.00;100793.00;4128959;28;20063;-64
2021/09/10 02:17:12;;;;;;;12.18;5.00;;;18.80;99.90;;;18.51;100.00;100801.66;4138106;28;20040;-65
2021/09/10 02:19:13;;;;;;;13.48;4.93;;;18.80;99.90;;;18.51;100.00;100808.84;4151020;28;20091;-64
2021/09/10 02:21:14;;;;;;;8.55;5.13;;;18.80;99.90;;;18.50;100.00;100801.84;4137640;28;20038;-64
2021/09/10 02:23:15;;;;;;;12.63;4.90;;;18.80;99.90;;;18.50;100.00;100810.69;4138107;28;20548;-64
2021/09/10 02:25:16;;;;;;;12.07;5.18;;;18.80;99.90;;;18.47;100.00;100800.38;4138138;28;20019;-64
2021/09/10 02:27:17;;;;;;;10.75;4.97;;;18.70;99.90;;;18.45;100.00;100794.44;4138116;28;20556;-64
2021/09/10 02:29:18;;;;;;;11.43;5.07;;;18.80;99.90;;;18.46;100.00;100797.91;4137994;28;20038;-65
2021/09/10 02:31:19;;;;;;;10.27;4.05;;;18.80;99.90;;;18.49;100.00;100792.19;4137736;28;20034;-64
2021/09/10 02:33:20;;;;;;;9.40;5.88;;;18.70;99.90;;;18.43;100.00;100793.00;4137840;28;20057;-64
2021/09/10 02:35:21;;;;;;;11.60;4.70;;;18.70;99.90;;;18.37;100.00;100789.28;4137657;28;20538;-64
2021/09/10 02:37:22;;;;;;;14.55;4.93;;;18.60;99.90;;;18.49;100.00;100797.53;4137628;28;20037;-64
2021/09/10 02:39:23;;;;;;;13.82;5.55;;;18.70;99.90;;;18.35;100.00;100778.00;4137647;28;20125;-64
2021/09/10 02:41:24;;;;;;;14.43;4.97;;;18.60;99.90;;;18.30;100.00;100783.13;4137756;28;20018;-64
2021/09/10 02:43:25;;;;;;;9.20;5.05;;;18.60;99.90;;;18.31;100.00;100783.97;4137776;28;20086;-64
2021/09/10 02:45:26;;;;;;;8.55;4.88;;;18.60;99.90;;;18.25;100.00;100782.91;4137508;28;20026;-64
2021/09/10 02:47:27;;;;;;;10.38;4.95;;;18.50;99.90;;;18.21;100.00;100793.19;4136361;28;20494;-65
2021/09/10 02:49:28;;;;;;;13.57;5.95;;;18.50;99.90;;;18.27;100.00;100783.53;4145298;28;20030;-64
2021/09/10 02:51:29;;;;;;;11.32;5.60;;;18.50;99.90;;;18.09;100.00;100770.81;4133283;28;20034;-64
2021/09/10 02:53:30;;;;;;;8.77;4.82;;;18.40;99.90;;;18.15;100.00;100779.84;4137465;28;20022;-64
2021/09/10 02:55:31;;;;;;;13.32;4.75;;;18.40;99.90;;;17.84;100.00;100720.88;4136519;28;20030;-64
2021/09/10 02:57:32;;;;;;;9.25;4.55;;;18.40;99.90;;;18.20;100.00;100780.88;4145107;28;20026;-64
2021/09/10 02:59:33;;;;;;;13.05;4.97;;;18.40;99.90;;;18.20;100.00;100782.72;4133307;28;20073;-64
2021/09/10 03:01:34;;;;;;;12.07;5.50;;;18.40;99.90;;;18.33;100.00;100774.72;4137347;28;20054;-64
2021/09/10 03:03:35;;;;;;;11.70;5.65;;;18.40;99.90;;;18.27;100.00;100778.19;4136396;28;20023;-64
2021/09/10 03:05:36;;;;;;;10.27;5.20;;;18.50;99.90;;;18.19;100.00;100783.72;4144653;28;20041;-64
2021/09/10 03:07:37;;;;;;;8.20;4.78;;;18.40;99.90;;;18.13;100.00;100785.38;4133049;28;20019;-64
2021/09/10 03:09:38;;;;;;;12.52;4.85;;;18.40;99.90;;;17.99;100.00;100764.19;4137359;28;20042;-64
2021/09/10 03:11:39;;;;;;;11.70;5.45;;;18.40;99.90;;;18.07;100.00;100780.03;4137272;28;20030;-64
2021/09/10 03:13:40;;;;;;;13.63;5.70;;;18.30;99.90;;;18.26;100.00;100773.88;4136465;28;20101;-64
2021/09/10 03:15:41;;;;;;;11.35;5.03;;;18.40;99.90;;;18.02;100.00;100751.28;4137210;28;20041;-64
2021/09/10 03:17:42;;;;;;;12.82;5.75;;;18.40;99.90;;;18.15;100.00;100766.50;4137746;28;20433;-64
2021/09/10 03:19:43;;;;;;;11.43;5.47;;;18.30;99.90;;;18.08;100.00;100769.16;4149422;28;20049;-64
2021/09/10 03:21:44;;;;;;;14.77;6.00;;;18.30;99.90;;;18.08;100.00;100773.66;4137193;28;20042;-64
2021/09/10 03:23:45;;;;;;;12.80;5.38;;;18.30;99.90;;;17.91;100.00;100756.41;4137155;28;20482;-64
2021/09/10 03:25:46;;;;;;;8.55;4.45;;;18.30;99.90;;;18.02;100.00;100774.47;4137190;28;20065;-64
2021/09/10 03:27:46;;;;;;;12.90;5.30;;;18.30;99.90;;;17.93;100.00;100760.50;4137155;28;20117;-64
2021/09/10 03:29:47;;;;;;;11.27;5.40;;;18.20;99.90;;;18.01;100.00;100767.50;4135921;28;20034;-64
2021/09/10 03:31:48;;;;;;;16.13;5.78;;;18.20;99.90;;;17.97;100.00;100769.75;4137208;28;20033;-64
2021/09/10 03:33:49;;;;;;;10.23;6.13;;;18.20;99.90;;;18.02;100.00;100769.13;4136908;28;20026;-67
2021/09/10 03:35:50;;;;;;;13.50;6.07;;;18.20;99.90;;;18.08;100.00;100761.13;4137864;28;20037;-64
2021/09/10 03:37:51;;;;;;;10.88;5.95;;;18.30;99.90;;;18.04;100.00;100769.78;4140113;28;20485;-64
2021/09/10 03:39:52;;;;;;;12.85;5.90;;;18.30;99.90;;;18.14;100.00;100778.19;4135736;28;20026;-64
2021/09/10 03:41:53;;;;;;;13.55;6.45;;;18.40;99.90;;;18.15;100.00;100771.81;4136863;28;20023;-64
2021/09/10 03:43:54;;;;;;;15.32;5.80;;;18.40;99.90;;;18.08;100.00;100773.66;4136734;28;20045;-64
2021/09/10 03:45:55;;;;;;;12.45;5.85;;;18.40;99.90;;;18.13;100.00;100776.53;4136913;28;20502;-64
2021/09/10 03:47:56;;;;;;;14.57;6.63;;;18.40;99.90;;;18.12;100.00;100775.72;4136810;28;20049;-64
2021/09/10 03:49:57;;;;;;;11.18;6.60;;;18.40;99.90;;;18.09;100.00;100770.81;4136537;28;20044;-64
2021/09/10 03:51:58;;;;;;;12.43;5.90;;;18.30;99.90;;;18.10;100.00;100772.44;4135630;28;20757;-64
2021/09/10 03:53:59;;;;;;;14.90;6.57;;;18.40;99.90;;;18.14;100.00;100763.00;4126651;28;20022;-64
2021/09/10 03:56:00;;;;;;;13.20;5.63;;;18.40;99.90;;;18.19;100.00;100775.72;4135553;28;20037;-64
2021/09/10 03:58:01;;;;;;;13.18;5.53;;;18.50;99.90;;;18.19;100.00;100778.38;4136243;28;20100;-64
2021/09/10 04:00:02;;;;;;;14.07;5.13;;;18.40;99.90;;;18.24;100.00;100773.28;4141499;28;20026;-64
2021/09/10 04:02:04;;;;;;;14.23;6.78;;;18.50;99.90;;;18.19;100.00;100776.53;4145400;28;20030;-64
2021/09/10 04:04:05;;;;;;;9.73;5.65;;;18.50;99.90;;;18.17;100.00;100788.47;4143974;28;20371;-64
2021/09/10 04:06:06;;;;;;;14.45;6.10;;;18.50;99.90;;;18.16;100.00;100781.47;4136436;28;20029;-64
2021/09/10 04:08:07;;;;;;;13.52;6.13;;;18.50;99.90;;;18.20;100.00;100785.38;4136516;28;20042;-64
2021/09/10 04:10:08;;;;;;;11.50;5.85;;;18.50;99.90;;;18.22;100.00;100780.66;4136511;28;20033;-64
2021/09/10 04:12:09;;;;;;;11.05;5.53;;;18.50;99.90;;;18.11;100.00;100782.09;4136475;28;20088;-64
2021/09/10 04:14:10;;;;;;;11.43;6.35;;;18.50;99.90;;;18.09;100.00;100778.81;4136363;28;20069;-64
2021/09/10 04:16:11;;;;;;;10.48;6.10;;;18.50;99.90;;;18.15;100.00;100782.50;4136337;28;20038;-64
2021/09/10 04:18:12;;;;;;;12.48;5.35;;;18.50;99.90;;;18.15;100.00;100790.53;4141117;28;20493;-64
2021/09/10 04:20:13;;;;;;;11.40;6.32;;;18.50;99.90;;;18.25;100.00;100780.22;4144397;28;20394;-64
2021/09/10 04:22:15;;;;;;;16.90;6.50;;;18.50;99.90;;;18.39;100.00;100786.41;4136426;28;20490;-64
2021/09/10 04:24:17;;;;;;;17.95;7.38;;;18.50;99.90;;;18.39;100.00;100789.09;4135823;28;20037;-64
2021/09/10 04:26:18;;;;;;;11.93;4.80;;;18.60;99.90;;;18.30;100.00;100788.47;4136296;28;20491;-64
2021/09/10 04:28:19;;;;;;;11.48;5.95;;;18.60;99.90;;;18.28;100.00;100774.50;4135012;28;20030;-64
2021/09/10 04:30:20;;;;;;;14.73;6.18;;;18.60;99.90;;;18.44;100.00;100794.63;4146219;28;20025;-64
2021/09/10 04:32:21;;;;;;;12.65;6.38;;;18.60;99.90;;;18.38;100.00;100788.25;4136172;28;20038;-64
2021/09/10 04:34:22;;;;;;;13.63;6.47;;;18.60;99.90;;;18.33;100.00;100781.91;4136255;28;20077;-64
2021/09/10 04:36:23;;;;;;;18.58;6.47;;;18.60;99.90;;;18.40;100.00;100777.38;4135303;28;20030;-64
2021/09/10 04:38:24;;;;;;;10.55;5.45;;;18.60;99.90;;;18.35;100.00;100787.84;4129389;28;20441;-64
2021/09/10 04:40:25;;;;;;;15.75;7.50;;;18.60;99.90;;;18.34;100.00;100789.69;4135650;28;20113;-64
2021/09/10 04:42:26;;;;;;;13.18;6.97;;;18.70;99.90;;;18.29;100.00;100796.69;4135961;28;20026;-64
2021/09/10 04:44:26;;;;;;;15.90;7.22;;;18.60;99.90;;;18.35;100.00;100790.50;4134596;28;20037;-64
2021/09/10 04:46:27;;;;;;;16.83;7.53;;;18.60;99.90;;;18.37;100.00;100791.94;4130050;28;20065;-64
2021/09/10 04:48:28;;;;;;;14.52;6.65;;;18.60;99.90;;;18.20;100.00;100774.69;4135883;28;20037;-64
2021/09/10 04:50:29;;;;;;;16.23;6.88;;;18.70;99.90;;;18.44;100.00;100794.63;4135692;28;20405;-64
2021/09/10 04:52:30;;;;;;;16.48;6.82;;;18.70;99.90;;;18.32;100.00;100794.44;4135806;28;20109;-64
2021/09/10 04:54:31;;;;;;;14.50;7.13;;;18.70;99.90;;;18.37;100.00;100799.16;4134498;28;20511;-64
2021/09/10 04:56:32;;;;;;;12.93;6.82;;;18.60;99.90;;;18.35;100.00;100796.69;4132947;28;20041;-64
2021/09/10 04:58:34;;;;;;;13.23;7.03;;;18.70;99.90;;;18.31;100.00;100805.31;4135731;28;20022;-64
2021/09/10 05:00:35;;;;;;;14.18;6.88;;;18.60;99.90;;;18.32;100.00;100802.44;4135872;28;20412;-64
2021/09/10 05:02:39;;;;;;;14.80;6.50;;;18.60;99.90;;;18.35;100.00;100806.53;4135812;28;20027;-64
2021/09/10 05:04:40;;;;;;;14.88;6.13;;;18.70;99.90;;;18.32;100.00;100781.06;4135544;28;20034;-64
2021/09/10 05:06:41;;;;;;;18.33;6.75;;;18.70;99.90;;;18.45;100.00;100802.44;4135746;28;20029;-64
2021/09/10 05:08:42;;;;;;;12.00;6.38;;;18.70;99.90;;;18.33;100.00;100808.59;4135967;28;20045;-64
2021/09/10 05:10:43;;;;;;;10.00;5.60;;;18.70;99.90;;;18.34;100.00;100810.25;4135762;28;20026;-64
2021/09/10 05:12:44;;;;;;;13.27;6.30;;;18.70;99.90;;;18.41;100.00;100806.56;4135551;28;20030;-64
2021/09/10 05:14:45;;;;;;;13.45;7.30;;;18.70;99.90;;;18.49;100.00;100802.88;4135760;28;20037;-64
2021/09/10 05:16:46;;;;;;;14.05;6.78;;;18.70;99.90;;;18.29;100.00;100794.84;4135762;28;20026;-64
2021/09/10 05:18:47;;;;;;;12.90;6.60;;;18.70;99.90;;;18.36;100.00;100817.03;4144807;28;20026;-64
2021/09/10 05:20:47;;;;;;;12.95;6.30;;;18.70;99.90;;;18.34;100.00;100784.34;4138594;28;20532;-64
2021/09/10 05:22:50;;;;;;;19.90;7.20;;;18.70;99.90;;;18.37;100.00;100810.66;4137862;28;20038;-64
2021/09/10 05:24:51;;;;;;;13.77;7.57;;;18.70;99.90;;;18.40;100.00;100807.56;4142343;28;20044;-64
2021/09/10 05:26:52;;;;;;;13.00;6.32;;;18.70;99.90;;;18.30;100.00;100806.34;4143307;28;20021;-64
2021/09/10 05:28:53;;;;;;;11.90;6.57;;;18.70;99.90;;;18.37;100.00;100815.19;4155552;28;20049;-64
2021/09/10 05:30:54;;;;;;;8.48;5.40;;;18.70;99.90;;;18.36;100.00;100821.56;4143186;28;20034;-64
2021/09/10 05:32:54;;;;;;;11.18;5.88;;;18.70;99.90;;;18.34;100.00;100821.75;4135608;28;20497;-64
2021/09/10 05:34:55;;;;;;;12.32;6.60;;;18.70;99.90;;;18.30;100.00;100823.19;4135410;28;20208;-64
2021/09/10 05:36:56;;;;;;;11.43;6.53;;;18.70;99.90;;;18.31;100.00;100824.03;4137497;28;20066;-64
2021/09/10 05:38:57;;;;;;;16.02;6.75;;;18.70;99.90;;;18.35;100.00;100827.91;4138444;28;20409;-64
2021/09/10 05:40:58;;;;;;;10.40;5.65;;;18.70;99.90;;;18.31;100.00;100830.16;4138709;28;20034;-64
2021/09/10 05:42:59;;;;;;;15.48;6.70;;;18.70;99.90;;;18.34;100.00;100839.63;4138626;28;20031;-64
2021/09/10 05:45:00;;;;;;;16.40;7.32;;;18.70;99.90;;;18.43;100.00;100841.09;4138773;28;20031;-64
2021/09/10 05:47:01;;;;;;;10.90;6.63;;;18.70;99.90;;;18.46;100.00;100841.47;4138459;28;20074;-64
2021/09/10 05:49:03;;;;;;;21.23;7.25;;;18.70;99.90;;;18.35;100.00;100852.78;4138619;28;20030;-64
2021/09/10 05:51:04;;;;;;;15.15;7.15;;;18.80;99.90;;;18.29;100.00;100834.88;4138377;28;20113;-64
2021/09/10 05:53:06;;;;;;;15.60;5.85;;;18.80;99.90;;;18.28;100.00;100838.56;4137347;28;20031;-64
2021/09/10 05:55:08;;;;;;;16.50;5.55;;;18.80;99.90;;;18.34;100.00;100859.13;4137223;28;20105;-64
2021/09/10 05:57:09;;;;;;;8.65;4.35;;;18.70;99.90;;;18.36;100.00;100851.75;4138536;28;20045;-64
2021/09/10 05:59:10;;;;;;;10.90;5.22;;;18.70;99.90;;;18.35;100.00;100858.13;4138452;28;20255;-64
2021/09/10 06:01:11;;;;;;;12.38;4.63;;;18.70;99.90;;;18.33;100.00;100859.34;4138338;28;20069;-65
2021/09/10 06:03:12;;;;;;;11.68;4.93;;;18.70;99.90;;;18.43;100.00;100867.78;4136885;28;20030;-65
2021/09/10 06:05:12;;;;;;;9.00;4.85;;;18.80;99.90;;;18.40;100.00;100862.88;4126889;28;20113;-64
2021/09/10 06:07:15;;;;;;;10.20;4.60;;;18.80;99.90;;;18.46;100.00;100870.03;4138388;28;20030;-64
2021/09/10 06:09:16;;;;;;;13.93;4.60;;;18.80;99.90;;;18.43;100.00;100886.50;4138242;28;20038;-64
2021/09/10 06:11:17;;;;;;;5.88;4.03;;;18.80;99.90;;;18.48;100.00;100876.84;4138016;28;20023;-64
2021/09/10 06:13:18;;;;;;;8.07;3.10;;;18.80;99.90;;;18.51;100.00;100889.81;4138316;28;20038;-64
2021/09/10 06:15:19;;;;;;;7.80;3.85;;;18.80;99.90;;;18.52;100.00;100883.44;4138239;28;20034;-64
2021/09/10 06:17:20;;;;;;;5.95;3.15;;;18.90;99.90;;;18.52;100.00;100888.78;4138124;28;20057;-64
2021/09/10 06:19:21;;;;;;;6.03;3.55;;;18.90;99.90;;;18.46;100.00;100878.88;4151011;28;20105;-64
2021/09/10 06:21:22;;;;;;;7.15;3.65;;;18.90;99.90;;;18.45;100.00;100882.59;4137822;28;20042;-64
2021/09/10 06:23:23;;;;;;;7.22;2.75;;;18.90;99.90;;;18.48;100.00;100908.91;4138058;28;20082;-64
2021/09/10 06:25:24;;;;;;;7.00;3.17;;;18.90;99.90;;;18.52;100.00;100904.81;4137538;28;20076;-64
2021/09/10 06:27:25;;;;;;;7.93;3.20;;;18.90;99.90;;;18.49;100.00;100907.88;4137322;28;20019;-64
2021/09/10 06:29:26;;;;;;;5.53;2.90;;;18.90;99.90;;;18.45;100.00;100895.94;4138039;28;20029;-64
2021/09/10 06:31:27;;;;;;;6.88;2.92;;;19.00;99.90;;;18.50;100.00;100911.38;4137822;28;20030;-64
2021/09/10 06:33:28;;;;;;;4.28;2.50;;;18.90;99.90;;;18.63;100.00;100914.09;4137881;28;20041;-64
2021/09/10 06:35:29;;;;;;;5.82;2.83;;;19.00;99.90;;;18.46;100.00;100883.38;4137681;28;20489;-64
2021/09/10 06:37:30;;;;;;;7.55;2.67;;;19.00;99.90;;;18.68;100.00;100915.09;4136579;28;20026;-64
2021/09/10 06:39:31;;;;;;;3.53;2.85;;;19.00;99.90;;;18.56;100.00;100899.88;4129804;28;20125;-64
2021/09/10 06:41:32;;;;;;;5.28;2.70;;;19.00;99.90;;;18.63;100.00;100928.28;4143877;28;20041;-64
2021/09/10 06:43:33;;;;;;;4.72;2.50;;;19.00;99.90;;;18.66;100.00;100927.03;4143195;28;20018;-64
2021/09/10 06:45:34;;;;;;;10.77;2.42;;;19.00;99.90;;;18.62;100.00;100926.63;4143311;28;20030;-64
2021/09/10 06:47:36;;;;;;;3.92;2.45;;;19.10;99.90;;;18.65;100.00;100930.72;4140193;28;20026;-64
2021/09/10 06:49:36;;;;;;;4.18;2.63;;;19.10;99.90;;;18.64;100.00;100932.56;4134852;28;20022;-64
2021/09/10 06:51:37;;;;;;;5.18;2.33;;;19.10;99.90;;;18.67;100.00;100934.84;4137489;28;20053;-64
2021/09/10 06:53:38;;;;;;;6.25;2.60;;;19.10;99.90;;;18.68;100.00;100941.84;4137088;28;20061;-64
2021/09/10 06:55:39;;;;;;;3.72;2.40;;;19.10;99.90;;;18.69;100.00;100931.97;4137471;28;20030;-64
2021/09/10 06:57:41;;;;;;;6.40;2.85;;;19.20;99.90;;;18.81;100.00;100941.03;4137437;28;20081;-64
2021/09/10 06:59:42;;;;;;;3.35;2.10;;;19.20;99.90;;;18.90;100.00;100939.81;4137168;28;20031;-64
2021/09/10 07:01:43;;;;;;;5.03;2.55;;;19.30;99.90;;;18.90;100.00;100938.97;4137385;28;20033;-64
2021/09/10 07:03:45;;;;;;;5.25;2.72;;;19.30;99.90;;;18.93;100.00;100938.56;4137039;28;20027;-64
2021/09/10 07:05:46;;;;;;;4.90;2.60;;;19.40;99.90;;;18.99;100.00;100943.09;4135610;28;20033;-64
2021/09/10 07:07:47;;;;;;;4.63;2.53;;;19.40;99.90;;;18.89;100.00;100948.84;4133615;28;20053;-64
2021/09/10 07:09:48;;;;;;;3.65;2.50;;;19.40;99.90;;;18.97;100.00;100950.47;4137110;28;20096;-64
2021/09/10 07:11:49;;;;;;;7.07;2.70;;;19.50;99.90;;;19.00;100.00;100944.72;4137185;28;20030;-64
2021/09/10 07:13:50;;;;;;;5.47;2.72;;;19.50;99.90;;;18.93;100.00;100960.78;4136900;28;20062;-64
2021/09/10 07:15:51;;;;;;;4.10;2.97;;;19.50;99.90;;;19.03;100.00;100955.81;4137034;28;20042;-64
2021/09/10 07:17:52;;;;;;;6.35;2.65;;;19.50;99.90;;;18.98;100.00;100960.97;4137938;28;20486;-65
2021/09/10 07:19:53;;;;;;;4.28;2.80;;;19.50;99.90;;;19.12;100.00;100959.09;4147635;28;20026;-64
2021/09/10 07:21:53;;;;;;;5.97;2.72;;;19.60;99.90;;;19.16;100.00;100957.69;4137105;28;20130;-64
2021/09/10 07:23:54;;;;;;;6.07;3.30;;;19.60;99.90;;;19.23;100.00;100966.53;4136924;28;20501;-64
2021/09/10 07:25:56;;;;;;;4.38;2.75;;;19.70;99.90;;;19.25;100.00;100964.47;4136908;28;20104;-64
2021/09/10 07:27:57;;;;;;;3.55;2.55;;;19.80;99.90;;;19.29;100.00;100949.66;4135561;28;20109;-63
2021/09/10 07:29:58;;;;;;;2.85;1.98;;;19.80;99.90;;;19.31;100.00;100964.47;4129047;28;20394;-62
2021/09/10 07:31:59;;;;;;;4.03;2.45;;;19.90;99.90;;;19.33;100.00;100972.25;4136879;28;20034;-63
2021/09/10 07:34:00;;;;;;;5.80;2.10;;;19.90;99.90;;;19.37;100.00;100978.03;4136697;28;20033;-63
2021/09/10 07:36:01;;;;;;;6.15;2.50;;;19.90;99.90;;;19.32;100.00;100971.44;4136707;28;20039;-63
2021/09/10 07:38:02;;;;;;;5.82;2.58;;;19.90;99.90;;;19.32;100.00;100970.63;4136545;28;20100;-63
2021/09/10 07:40:05;;;;;;;4.90;2.47;;;19.90;99.90;;;19.31;100.00;100990.38;4135549;28;20425;-63
2021/09/10 07:42:06;;;;;;;3.83;2.47;;;19.90;99.90;;;19.14;100.00;100995.34;4135248;28;20090;-63
2021/09/10 07:44:07;;;;;;;3.85;2.53;;;19.80;99.90;;;19.13;100.00;100996.34;4135470;28;20265;-64
2021/09/10 07:46:08;;;;;;;3.67;2.08;;;19.80;99.90;;;19.24;100.00;100992.22;4128421;28;20029;-63
2021/09/10 07:48:09;;;;;;;4.10;2.80;;;19.80;99.90;;;19.25;100.00;100996.56;4136782;28;20026;-63
2021/09/10 07:50:10;;;;;;;4.97;2.20;;;19.80;99.90;;;19.21;100.00;101001.50;4136381;28;20045;-62
2021/09/10 07:52:11;;;;;;;3.83;2.58;;;19.80;99.90;;;19.22;100.00;101003.16;4136700;28;20030;-62
2021/09/10 07:54:13;;;;;;;3.08;2.70;;;19.80;99.90;;;19.21;100.00;100998.00;4136458;28;20022;-63
2021/09/10 07:56:14;;;;;;;3.55;2.78;;;19.80;99.90;;;19.05;100.00;101009.94;4136563;28;20034;-64
2021/09/10 07:58:15;;;;;;;5.57;3.50;;;19.70;99.90;;;19.16;100.00;101013.84;4136091;28;20038;-63
2021/09/10 08:00:20;;;;;;;7.65;2.60;;;19.80;99.90;;;19.27;100.00;101016.72;4136489;28;20410;-65
2021/09/10 08:02:25;;;;;;;6.28;3.00;;;19.80;99.90;;;19.37;100.00;101021.66;4134808;28;20038;-65
2021/09/10 08:04:26;;;;;;;6.03;2.85;;;19.90;99.90;;;19.49;100.00;101020.03;4131574;28;20382;-67
2021/09/10 08:06:28;;;;;;;6.68;3.20;;;20.00;99.90;;;19.62;100.00;101028.03;4135225;28;20040;-63
2021/09/10 08:08:29;;;;;;;3.08;2.58;;;20.10;99.90;;;19.59;100.00;101025.78;4130606;28;20081;-63
2021/09/10 08:10:30;;;;;;;4.93;2.88;;;20.20;99.90;;;19.50;100.00;101035.06;4144487;28;20038;-63
2021/09/10 08:12:31;;;;;;;4.35;2.72;;;20.20;99.90;;;19.16;100.00;101036.06;4151379;28;20130;-62
2021/09/10 08:14:32;;;;;;;4.60;3.08;;;20.20;99.90;;;19.31;100.00;101030.50;4136003;28;20485;-63
2021/09/10 08:16:34;;;;;;;4.25;3.13;;;20.20;99.90;;;19.53;100.00;101044.53;4136102;28;20461;-62